Time;durP1;ratioP1;P1;durP2;ratioP2;P2;SDS_P1;SDS_P2;PMS_P1;PMS_P2;Temp;Humidity;BMP_temperature;BMP_pressure;BME280_temperature;BME280_humidity;BME280_pressure;Samples;Min_cycle;Max_cycle;Signal;HPM_P1;HPM_P2
2022/12/09 00:00:06;;;;;;;31.48;20.75;;;;;;;;;;5053833;28;20053;-73
2022/12/09 00:02:33;;;;;;;32.45;21.42;;;;;;;;;;5053946;28;20127;-73
2022/12/09 00:05:00;;;;;;;28.42;20.38;;;;;;;;;;5053681;28;20511;-72
2022/12/09 00:07:27;;;;;;;27.50;19.60;;;;;;;;;;5052287;28;20095;-72
2022/12/09 00:09:54;;;;;;;29.42;20.08;;;;;;;;;;5051948;28;20313;-72
2022/12/09 00:12:20;;;;;;;28.05;20.27;;;;;;;;;;5051046;28;20053;-72
2022/12/09 00:14:47;;;;;;;26.17;20.05;;;;;;;;;;5053488;28;20063;-72
2022/12/09 00:17:14;;;;;;;24.35;19.35;;;;;;;;;;5050825;28;20072;-72
2022/12/09 00:19:40;;;;;;;27.25;19.85;;;;;;;;;;5049183;28;20045;-73
2022/12/09 00:22:07;;;;;;;26.17;20.77;;;;;;;;;;5052041;28;20130;-72
2022/12/09 00:24:33;;;;;;;32.13;23.17;;;;;;;;;;5053271;28;20052;-72
2022/12/09 00:27:00;;;;;;;29.88;23.85;;;;;;;;;;5052850;28;20127;-72
2022/12/09 00:29:26;;;;;;;29.75;22.25;;;;;;;;;;5053271;28;20083;-72
2022/12/09 00:31:53;;;;;;;31.73;22.10;;;;;;;;;;5053469;28;20044;-73
2022/12/09 00:34:20;;;;;;;31.40;21.67;;;;;;;;;;5053280;28;20473;-72
2022/12/09 00:36:46;;;;;;;38.88;24.42;;;;;;;;;;5051827;28;20136;-72
2022/12/09 00:39:13;;;;;;;36.92;22.85;;;;;;;;;;5053102;28;20072;-72
2022/12/09 00:41:39;;;;;;;28.00;20.50;;;;;;;;;;5053082;28;20045;-73
2022/12/09 00:44:06;;;;;;;28.67;21.17;;;;;;;;;;5052964;28;20553;-73
2022/12/09 00:46:32;;;;;;;26.75;20.33;;;;;;;;;;5053197;28;20346;-73
2022/12/09 00:48:59;;;;;;;30.52;22.20;;;;;;;;;;5051560;28;20041;-73
2022/12/09 00:51:26;;;;;;;28.90;21.50;;;;;;;;;;5052753;28;20158;-73
2022/12/09 00:53:54;;;;;;;27.92;21.77;;;;;;;;;;5052792;28;20102;-73
2022/12/09 00:56:25;;;;;;;27.55;20.45;;;;;;;;;;5052954;28;20107;-73
2022/12/09 00:58:51;;;;;;;28.52;19.23;;;;;;;;;;5053033;28;20048;-73
2022/12/09 01:01:18;;;;;;;27.75;18.77;;;;;;;;;;5051411;28;20496;-73
2022/12/09 01:03:45;;;;;;;27.25;19.75;;;;;;;;;;5052570;28;20412;-73
2022/12/09 01:06:13;;;;;;;25.52;19.40;;;;;;;;;;5052624;28;20061;-72
2022/12/09 01:08:40;;;;;;;;;;;;;;;;;;5051664;28;20136;-73
2022/12/09 01:11:12;;;;;;;27.15;18.23;;;;;;;;;;5052171;28;20296;-73
2022/12/09 01:13:38;;;;;;;24.73;17.33;;;;;;;;;;5051215;28;20052;-73
2022/12/09 01:16:12;;;;;;;26.38;19.02;;;;;;;;;;5052658;28;20147;-73
2022/12/09 01:18:38;;;;;;;24.90;17.27;;;;;;;;;;5052473;28;20124;-73
2022/12/09 01:21:05;;;;;;;24.27;17.00;;;;;;;;;;5051155;28;20140;-73
2022/12/09 01:23:31;;;;;;;23.85;17.25;;;;;;;;;;5051966;28;20057;-73
2022/12/09 01:25:58;;;;;;;25.92;17.83;;;;;;;;;;5052786;28;20408;-72
2022/12/09 01:28:24;;;;;;;23.08;16.48;;;;;;;;;;5052076;28;20131;-73
2022/12/09 01:30:51;;;;;;;22.90;16.70;;;;;;;;;;5050637;28;20099;-73
2022/12/09 01:33:17;;;;;;;23.63;16.27;;;;;;;;;;5051001;28;20269;-72
2022/12/09 01:35:44;;;;;;;25.52;16.73;;;;;;;;;;5051084;28;20051;-73
2022/12/09 01:38:11;;;;;;;20.40;16.20;;;;;;;;;;5052579;28;20098;-72
2022/12/09 01:40:43;;;;;;;22.73;16.85;;;;;;;;;;5052167;28;20045;-73
2022/12/09 01:43:15;;;;;;;22.58;16.00;;;;;;;;;;5052422;28;20111;-73
2022/12/09 01:45:42;;;;;;;23.05;16.60;;;;;;;;;;5051834;28;20080;-73
2022/12/09 01:48:10;;;;;;;23.65;16.85;;;;;;;;;;5051950;28;20072;-73
2022/12/09 01:50:36;;;;;;;;;;;;;;;;;;5050866;28;20049;-73
2022/12/09 01:53:04;;;;;;;29.05;19.80;;;;;;;;;;5051786;28;19956;-72
2022/12/09 01:55:30;;;;;;;22.73;16.70;;;;;;;;;;5051740;28;20049;-72
2022/12/09 01:57:57;;;;;;;24.92;17.20;;;;;;;;;;5051705;28;20301;-72
2022/12/09 02:00:24;;;;;;;21.25;16.30;;;;;;;;;;5051763;28;20469;-73
2022/12/09 02:02:52;;;;;;;25.30;16.20;;;;;;;;;;5050395;28;20099;-73
2022/12/09 02:05:19;;;;;;;20.08;15.30;;;;;;;;;;5052172;28;20056;-73
2022/12/09 02:07:46;;;;;;;20.98;16.30;;;;;;;;;;5051863;28;20048;-73
2022/12/09 02:10:14;;;;;;;21.55;15.75;;;;;;;;;;5051892;28;20040;-73
2022/12/09 02:12:44;;;;;;;20.15;14.77;;;;;;;;;;5051432;28;20084;-73
2022/12/09 02:15:24;;;;;;;22.52;16.02;;;;;;;;;;5050458;28;20483;-73
2022/12/09 02:17:59;;;;;;;24.50;16.45;;;;;;;;;;5051492;28;20587;-73
2022/12/09 02:20:25;;;;;;;23.98;15.23;;;;;;;;;;5051675;28;20451;-73
2022/12/09 02:23:12;;;;;;;23.63;15.23;;;;;;;;;;5051315;28;20060;-73
2022/12/09 02:25:46;;;;;;;24.13;15.77;;;;;;;;;;5051710;28;20061;-73
2022/12/09 02:28:28;;;;;;;21.70;15.43;;;;;;;;;;5051359;28;20049;-73
2022/12/09 02:30:58;;;;;;;21.02;15.20;;;;;;;;;;5051571;28;20111;-73
2022/12/09 02:33:30;;;;;;;23.23;15.85;;;;;;;;;;5051238;28;20115;-73
2022/12/09 02:36:02;;;;;;;24.33;16.65;;;;;;;;;;5051334;28;20096;-73
2022/12/09 02:38:31;;;;;;;22.05;16.02;;;;;;;;;;5049973;28;20044;-72
2022/12/09 02:41:02;;;;;;;22.75;15.65;;;;;;;;;;5049949;28;20136;-72
2022/12/09 02:43:32;;;;;;;19.58;15.23;;;;;;;;;;5050953;28;20053;-73
2022/12/09 02:45:59;;;;;;;24.40;16.45;;;;;;;;;;5055116;28;20059;-73
2022/12/09 02:48:28;;;;;;;21.88;15.20;;;;;;;;;;5055490;28;20045;-73
2022/12/09 02:50:55;;;;;;;20.45;15.20;;;;;;;;;;5055739;28;20049;-73
2022/12/09 02:53:23;;;;;;;22.45;15.07;;;;;;;;;;5055093;28;20053;-73
2022/12/09 02:55:52;;;;;;;23.60;15.82;;;;;;;;;;5055289;28;20512;-73
2022/12/09 02:58:18;;;;;;;21.77;16.10;;;;;;;;;;5055184;28;20590;-73
2022/12/09 03:00:45;;;;;;;24.67;15.88;;;;;;;;;;5054827;28;20045;-73
2022/12/09 03:03:13;;;;;;;24.20;15.77;;;;;;;;;;5055194;28;20052;-73
2022/12/09 03:05:46;;;;;;;20.35;15.15;;;;;;;;;;5054814;28;20056;-73
2022/12/09 03:08:21;;;;;;;21.70;16.17;;;;;;;;;;5053786;28;20060;-73
2022/12/09 03:11:07;;;;;;;22.25;14.93;;;;;;;;;;5054894;28;20049;-73
2022/12/09 03:13:45;;;;;;;22.95;15.63;;;;;;;;;;5054720;28;20124;-73
2022/12/09 03:16:19;;;;;;;25.17;15.35;;;;;;;;;;5054878;28;20551;-72
2022/12/09 03:18:48;;;;;;;23.25;15.23;;;;;;;;;;5054746;28;20091;-72
2022/12/09 03:21:17;;;;;;;20.58;14.80;;;;;;;;;;5054546;28;20497;-73
2022/12/09 03:23:43;;;;;;;22.80;15.52;;;;;;;;;;5053350;28;20530;-72
2022/12/09 03:26:10;;;;;;;21.65;15.05;;;;;;;;;;5054537;28;20128;-73
2022/12/09 03:28:40;;;;;;;24.63;16.67;;;;;;;;;;5054812;28;20088;-73
2022/12/09 03:31:09;;;;;;;21.35;15.43;;;;;;;;;;5054489;28;20045;-73
2022/12/09 03:33:35;;;;;;;21.40;15.73;;;;;;;;;;5054389;28;20416;-73
2022/12/09 03:36:05;;;;;;;23.88;16.23;;;;;;;;;;5053349;28;20474;-72
2022/12/09 03:38:34;;;;;;;23.02;16.08;;;;;;;;;;5054252;28;20523;-72
2022/12/09 03:41:24;;;;;;;25.05;18.48;;;;;;;;;;5054196;28;20045;-72
2022/12/09 03:44:02;;;;;;;24.25;17.95;;;;;;;;;;5054194;28;20128;-72
2022/12/09 03:46:29;;;;;;;21.75;17.30;;;;;;;;;;5054327;28;20044;-73
2022/12/09 03:48:56;;;;;;;19.13;15.35;;;;;;;;;;5045299;28;20045;-74
2022/12/09 03:51:29;;;;;;;23.05;17.25;;;;;;;;;;5048991;28;20049;-74
2022/12/09 03:54:08;;;;;;;25.50;18.60;;;;;;;;;;5053679;28;20045;-73
2022/12/09 03:56:38;;;;;;;24.15;18.38;;;;;;;;;;5053940;28;20124;-73
2022/12/09 03:59:08;;;;;;;22.67;17.23;;;;;;;;;;5052769;28;20049;-73
2022/12/09 04:01:35;;;;;;;22.10;17.17;;;;;;;;;;5054165;28;20056;-73
2022/12/09 04:04:02;;;;;;;22.90;16.67;;;;;;;;;;5053958;28;20052;-73
2022/12/09 04:06:29;;;;;;;20.33;16.23;;;;;;;;;;5053964;28;20049;-73
2022/12/09 04:08:55;;;;;;;23.05;16.92;;;;;;;;;;5053593;28;20045;-73
2022/12/09 04:11:27;;;;;;;24.80;18.38;;;;;;;;;;5052557;28;20053;-73
2022/12/09 04:13:54;;;;;;;22.70;17.25;;;;;;;;;;5053540;28;20049;-73
2022/12/09 04:16:20;;;;;;;21.92;17.25;;;;;;;;;;5053549;28;20049;-73
2022/12/09 04:18:47;;;;;;;22.25;17.10;;;;;;;;;;5053467;28;20128;-73
2022/12/09 04:21:13;;;;;;;21.48;15.90;;;;;;;;;;5053473;28;20503;-73
2022/12/09 04:23:40;;;;;;;21.20;15.95;;;;;;;;;;5053287;28;20092;-73
2022/12/09 04:26:12;;;;;;;20.65;16.77;;;;;;;;;;5053699;28;20048;-73
2022/12/09 04:28:38;;;;;;;20.45;16.33;;;;;;;;;;5053301;28;20564;-73
2022/12/09 04:31:08;;;;;;;19.83;15.93;;;;;;;;;;5053785;28;20127;-73
2022/12/09 04:33:35;;;;;;;23.10;15.40;;;;;;;;;;5052161;28;20128;-73
2022/12/09 04:36:03;;;;;;;25.08;16.40;;;;;;;;;;5053512;28;20095;-73
2022/12/09 04:38:29;;;;;;;21.25;16.35;;;;;;;;;;5052152;28;20053;-73
2022/12/09 04:40:58;;;;;;;25.20;17.08;;;;;;;;;;5053311;28;20075;-73
2022/12/09 04:43:24;;;;;;;21.77;15.77;;;;;;;;;;5052025;28;20099;-73
2022/12/09 04:45:51;;;;;;;23.80;16.60;;;;;;;;;;5051629;28;20056;-73
2022/12/09 04:48:18;;;;;;;22.00;17.30;;;;;;;;;;5051895;28;20055;-73
2022/12/09 04:50:44;;;;;;;22.95;17.38;;;;;;;;;;5052919;28;20056;-73
2022/12/09 04:53:11;;;;;;;21.55;16.30;;;;;;;;;;5053004;28;20114;-73
2022/12/09 04:55:37;;;;;;;21.27;16.65;;;;;;;;;;5052861;28;20064;-73
2022/12/09 04:58:04;;;;;;;22.77;16.85;;;;;;;;;;5053035;28;20057;-73
2022/12/09 05:00:31;;;;;;;22.85;17.58;;;;;;;;;;5052905;28;20421;-73
2022/12/09 05:02:57;;;;;;;23.65;17.33;;;;;;;;;;5052799;28;20143;-73
2022/12/09 05:05:24;;;;;;;23.77;17.00;;;;;;;;;;5052241;28;20053;-73
2022/12/09 05:07:51;;;;;;;23.30;17.63;;;;;;;;;;5052364;28;20057;-73
2022/12/09 05:10:17;;;;;;;23.48;17.38;;;;;;;;;;5051292;28;20049;-73
2022/12/09 05:12:44;;;;;;;26.02;18.67;;;;;;;;;;5052408;28;20045;-73
2022/12/09 05:15:11;;;;;;;24.67;20.25;;;;;;;;;;5051214;28;20532;-73
2022/12/09 05:17:38;;;;;;;34.22;25.08;;;;;;;;;;5037624;28;20076;-73
2022/12/09 05:20:05;;;;;;;44.42;27.65;;;;;;;;;;5051404;28;20053;-73
2022/12/09 05:22:32;;;;;;;61.20;37.67;;;;;;;;;;5052196;28;20055;-73
2022/12/09 05:24:59;;;;;;;75.40;46.00;;;;;;;;;;5051094;28;20060;-73
2022/12/09 05:27:25;;;;;;;66.25;40.50;;;;;;;;;;5050892;28;20059;-73
2022/12/09 05:29:52;;;;;;;59.92;37.50;;;;;;;;;;5052223;28;20045;-73
2022/12/09 05:32:20;;;;;;;52.15;32.95;;;;;;;;;;5051934;28;20110;-73
2022/12/09 05:34:46;;;;;;;51.03;33.35;;;;;;;;;;5052413;28;20049;-74
2022/12/09 05:37:14;;;;;;;50.90;32.78;;;;;;;;;;5052118;28;20129;-73
2022/12/09 05:39:40;;;;;;;45.85;32.22;;;;;;;;;;5051868;28;20055;-73
2022/12/09 05:42:07;;;;;;;31.40;22.02;;;;;;;;;;5052301;28;20045;-73
2022/12/09 05:44:34;;;;;;;30.80;21.52;;;;;;;;;;5051828;28;20489;-72
2022/12/09 05:47:00;;;;;;;35.25;25.67;;;;;;;;;;5051884;28;20072;-72
2022/12/09 05:49:28;;;;;;;39.95;27.20;;;;;;;;;;5052119;28;20044;-73
2022/12/09 05:51:54;;;;;;;37.95;24.35;;;;;;;;;;5050538;28;20049;-72
2022/12/09 05:54:21;;;;;;;34.20;23.70;;;;;;;;;;5051745;28;20103;-72
2022/12/09 05:56:47;;;;;;;29.52;22.00;;;;;;;;;;5051911;28;20111;-72
2022/12/09 05:59:14;;;;;;;29.67;21.13;;;;;;;;;;5052043;28;20167;-73
2022/12/09 06:01:41;;;;;;;32.30;21.52;;;;;;;;;;5051945;28;20056;-72
2022/12/09 06:04:08;;;;;;;30.17;21.23;;;;;;;;;;5050339;28;20443;-72
2022/12/09 06:06:34;;;;;;;24.98;20.15;;;;;;;;;;5050576;28;20057;-72
2022/12/09 06:09:02;;;;;;;26.75;20.52;;;;;;;;;;5051513;28;20063;-72
2022/12/09 06:11:30;;;;;;;27.60;20.17;;;;;;;;;;5051621;28;20045;-72
2022/12/09 06:13:57;;;;;;;27.13;19.35;;;;;;;;;;5050176;28;20041;-73
2022/12/09 06:16:24;;;;;;;27.25;20.20;;;;;;;;;;5051822;28;20048;-72
2022/12/09 06:18:54;;;;;;;26.67;20.65;;;;;;;;;;5051362;28;20052;-72
2022/12/09 06:21:21;;;;;;;27.52;20.60;;;;;;;;;;5051393;28;20143;-72
2022/12/09 06:23:49;;;;;;;25.55;19.67;;;;;;;;;;5051333;28;20063;-72
2022/12/09 06:26:22;;;;;;;25.85;18.77;;;;;;;;;;5051427;28;20120;-72
2022/12/09 06:28:50;;;;;;;26.05;18.92;;;;;;;;;;5051312;28;20060;-72
2022/12/09 06:31:17;;;;;;;24.67;19.80;;;;;;;;;;5052972;28;20049;-73
2022/12/09 06:33:47;;;;;;;32.97;21.33;;;;;;;;;;5051248;28;20107;-73
2022/12/09 06:36:23;;;;;;;54.17;32.33;;;;;;;;;;5051648;28;20140;-73
2022/12/09 06:38:53;;;;;;;58.38;35.10;;;;;;;;;;5051312;28;20045;-73
2022/12/09 06:41:21;;;;;;;47.78;27.60;;;;;;;;;;5051221;28;20056;-73
2022/12/09 06:43:47;;;;;;;38.67;24.83;;;;;;;;;;5049885;28;20503;-73
2022/12/09 06:46:18;;;;;;;31.20;21.33;;;;;;;;;;5033529;28;20087;-73
2022/12/09 06:48:45;;;;;;;35.15;22.83;;;;;;;;;;5033858;28;20067;-73
2022/12/09 06:51:13;;;;;;;35.22;24.98;;;;;;;;;;5051103;28;20049;-73
2022/12/09 06:53:42;;;;;;;40.38;26.33;;;;;;;;;;5050963;28;20036;-73
2022/12/09 06:56:10;;;;;;;29.02;20.90;;;;;;;;;;5051475;28;20056;-73
2022/12/09 06:58:39;;;;;;;26.50;19.20;;;;;;;;;;5051096;28;20445;-73
2022/12/09 07:01:12;;;;;;;25.10;18.67;;;;;;;;;;5050167;28;20493;-74
2022/12/09 07:03:43;;;;;;;24.48;18.27;;;;;;;;;;5051034;28;20818;-74
2022/12/09 07:06:25;;;;;;;26.88;18.80;;;;;;;;;;5051108;28;20053;-75
2022/12/09 07:08:52;;;;;;;28.50;19.92;;;;;;;;;;5051001;28;20477;-74
2022/12/09 07:11:19;;;;;;;30.50;20.10;;;;;;;;;;5050940;28;20626;-74
2022/12/09 07:13:46;;;;;;;32.30;20.67;;;;;;;;;;5051148;28;20308;-75
2022/12/09 07:16:13;;;;;;;26.30;18.20;;;;;;;;;;5051295;28;20047;-74
2022/12/09 07:18:40;;;;;;;24.05;17.38;;;;;;;;;;5051073;28;20045;-74
2022/12/09 07:21:15;;;;;;;20.65;16.40;;;;;;;;;;5051043;28;20049;-71
2022/12/09 07:23:41;;;;;;;20.83;17.00;;;;;;;;;;5050862;28;20110;-74
2022/12/09 07:26:08;;;;;;;21.85;17.23;;;;;;;;;;5049912;28;20041;-74
2022/12/09 07:28:36;;;;;;;22.57;17.27;;;;;;;;;;5051222;28;20401;-74
2022/12/09 07:31:02;;;;;;;22.65;17.50;;;;;;;;;;5054187;28;20045;-74
2022/12/09 07:33:32;;;;;;;23.42;17.52;;;;;;;;;;5053955;28;20053;-74
2022/12/09 07:35:59;;;;;;;19.77;16.73;;;;;;;;;;5054321;28;20045;-76
2022/12/09 07:38:26;;;;;;;21.83;16.48;;;;;;;;;;5054306;28;20044;-75
2022/12/09 07:40:53;;;;;;;20.17;16.42;;;;;;;;;;5054542;28;20091;-74
2022/12/09 07:43:20;;;;;;;22.88;16.95;;;;;;;;;;5054511;28;20416;-74
2022/12/09 07:45:48;;;;;;;23.63;18.05;;;;;;;;;;5054467;28;20060;-76
2022/12/09 07:48:15;;;;;;;23.58;18.33;;;;;;;;;;5054470;28;20136;-74
2022/12/09 07:50:42;;;;;;;24.50;17.50;;;;;;;;;;5052814;28;20059;-74
2022/12/09 07:53:09;;;;;;;21.65;17.80;;;;;;;;;;5039821;28;20129;-74
2022/12/09 07:55:36;;;;;;;26.58;17.45;;;;;;;;;;5042053;28;20128;-75
2022/12/09 07:58:05;;;;;;;21.90;17.83;;;;;;;;;;5051266;28;20045;-74
2022/12/09 08:00:31;;;;;;;22.77;16.88;;;;;;;;;;5054151;28;20053;-76
2022/12/09 08:02:58;;;;;;;24.10;17.40;;;;;;;;;;5053858;28;20053;-76
2022/12/09 08:05:25;;;;;;;24.05;18.05;;;;;;;;;;5053696;28;20123;-76
2022/12/09 08:07:52;;;;;;;25.83;18.43;;;;;;;;;;5053962;28;20061;-76
2022/12/09 08:10:20;;;;;;;28.38;20.60;;;;;;;;;;5053500;28;20139;-75
2022/12/09 08:12:46;;;;;;;31.02;21.27;;;;;;;;;;5054226;28;20045;-75
2022/12/09 08:15:15;;;;;;;29.35;20.35;;;;;;;;;;5053563;28;20063;-75
2022/12/09 08:17:42;;;;;;;29.88;20.83;;;;;;;;;;5053548;28;20049;-75
2022/12/09 08:20:09;;;;;;;28.17;21.20;;;;;;;;;;5051928;28;20079;-75
2022/12/09 08:22:36;;;;;;;23.37;19.00;;;;;;;;;;5053300;28;20056;-75
2022/12/09 08:25:05;;;;;;;24.60;18.60;;;;;;;;;;5052234;28;20550;-75
2022/12/09 08:27:35;;;;;;;22.88;17.75;;;;;;;;;;5053482;28;20076;-76
2022/12/09 08:30:03;;;;;;;23.60;18.63;;;;;;;;;;5053611;28;20064;-76
2022/12/09 08:32:31;;;;;;;28.48;20.50;;;;;;;;;;5053041;28;20053;-76
2022/12/09 08:34:58;;;;;;;25.80;18.30;;;;;;;;;;5053294;28;20051;-76
2022/12/09 08:37:25;;;;;;;24.48;19.05;;;;;;;;;;5053173;28;20053;-76
2022/12/09 08:39:51;;;;;;;27.00;19.60;;;;;;;;;;5053241;28;20500;-76
2022/12/09 08:42:19;;;;;;;28.10;20.67;;;;;;;;;;5051709;28;20057;-76
2022/12/09 08:44:49;;;;;;;27.25;20.70;;;;;;;;;;5053074;28;20452;-76
2022/12/09 08:47:19;;;;;;;26.85;19.65;;;;;;;;;;5052833;28;20057;-76
2022/12/09 08:49:46;;;;;;;27.00;19.52;;;;;;;;;;5052846;28;20052;-76
2022/12/09 08:52:16;;;;;;;27.90;18.02;;;;;;;;;;5052916;28;20045;-76
2022/12/09 08:54:43;;;;;;;21.38;16.20;;;;;;;;;;5052858;28;20098;-76
2022/12/09 08:57:09;;;;;;;20.80;15.73;;;;;;;;;;5052821;28;20056;-76
2022/12/09 08:59:36;;;;;;;22.55;15.63;;;;;;;;;;5052733;28;20532;-76
2022/12/09 09:02:10;;;;;;;21.90;15.75;;;;;;;;;;5052995;28;20547;-76
2022/12/09 09:04:39;;;;;;;20.20;15.18;;;;;;;;;;5052637;28;20503;-76
2022/12/09 09:07:08;;;;;;;21.70;15.35;;;;;;;;;;5052880;28;20128;-76
2022/12/09 09:09:36;;;;;;;19.03;15.03;;;;;;;;;;5052611;28;20052;-76
2022/12/09 09:12:03;;;;;;;18.57;15.23;;;;;;;;;;5052507;28;20114;-76
2022/12/09 09:14:30;;;;;;;23.73;17.15;;;;;;;;;;5051408;28;20056;-76
2022/12/09 09:16:56;;;;;;;21.58;16.50;;;;;;;;;;5052666;28;20464;-76
2022/12/09 09:19:24;;;;;;;33.57;23.10;;;;;;;;;;5052701;28;20048;-76
2022/12/09 09:21:52;;;;;;;19.85;15.32;;;;;;;;;;5052313;28;20488;-76
2022/12/09 09:24:20;;;;;;;18.77;14.88;;;;;;;;;;5052123;28;20136;-77
2022/12/09 09:26:48;;;;;;;22.35;16.25;;;;;;;;;;5052279;28;20063;-77
2022/12/09 09:29:15;;;;;;;;;;;;;;;;;;5052804;28;20060;-77
2022/12/09 09:31:42;;;;;;;17.08;15.15;;;;;;;;;;5052341;28;19987;-77
2022/12/09 09:34:09;;;;;;;17.45;13.27;;;;;;;;;;5052124;28;20128;-78
2022/12/09 09:36:38;;;;;;;16.08;14.48;;;;;;;;;;5052130;28;20049;-78
2022/12/09 09:39:05;;;;;;;17.00;13.18;;;;;;;;;;5051940;28;20048;-78
2022/12/09 09:41:38;;;;;;;16.25;12.45;;;;;;;;;;5052231;28;20127;-78
2022/12/09 09:44:14;;;;;;;14.82;12.68;;;;;;;;;;5052191;28;20160;-78
2022/12/09 09:46:43;;;;;;;14.10;12.18;;;;;;;;;;5052271;28;20072;-78
2022/12/09 09:49:15;;;;;;;13.40;12.00;;;;;;;;;;5052123;28;20053;-79
2022/12/09 09:51:44;;;;;;;14.32;13.13;;;;;;;;;;5051465;28;20094;-78
2022/12/09 09:54:12;;;;;;;14.52;13.10;;;;;;;;;;5051606;28;20404;-78
2022/12/09 09:56:44;;;;;;;13.65;12.35;;;;;;;;;;5052018;28;20099;-78
2022/12/09 09:59:15;;;;;;;14.55;12.38;;;;;;;;;;5051976;28;20396;-78
2022/12/09 10:01:44;;;;;;;14.10;12.73;;;;;;;;;;5051734;28;20110;-78
2022/12/09 10:04:11;;;;;;;15.05;13.48;;;;;;;;;;5051577;28;20156;-78
2022/12/09 10:07:01;;;;;;;14.77;13.18;;;;;;;;;;5051702;28;20493;-78
2022/12/09 10:09:33;;;;;;;15.68;14.18;;;;;;;;;;5051887;28;20049;-78
2022/12/09 10:12:09;;;;;;;14.13;12.73;;;;;;;;;;5051615;28;20424;-78
2022/12/09 10:14:39;;;;;;;13.93;12.52;;;;;;;;;;5051498;28;20057;-79
2022/12/09 10:17:18;;;;;;;13.00;11.80;;;;;;;;;;5051451;28;20136;-79
2022/12/09 10:19:47;;;;;;;13.60;12.30;;;;;;;;;;5051537;28;20041;-79
2022/12/09 10:22:18;;;;;;;13.20;12.00;;;;;;;;;;5051547;28;20144;-79
2022/12/09 10:24:58;;;;;;;13.82;12.63;;;;;;;;;;5051536;28;20486;-79
2022/12/09 10:27:29;;;;;;;13.60;12.30;;;;;;;;;;5051708;28;20049;-79
2022/12/09 10:29:56;;;;;;;14.70;13.20;;;;;;;;;;5051624;28;20052;-79
2022/12/09 10:32:28;;;;;;;14.98;13.65;;;;;;;;;;5051619;28;20053;-79
2022/12/09 10:34:56;;;;;;;13.60;12.50;;;;;;;;;;5051349;28;20485;-78
2022/12/09 10:37:23;;;;;;;13.50;12.32;;;;;;;;;;5051316;28;20049;-78
2022/12/09 10:40:10;;;;;;;14.20;12.80;;;;;;;;;;5051625;28;20514;-78
2022/12/09 10:45:32;;;;;;;14.90;13.50;;;;;;;;;;5051303;28;20114;-78
2022/12/09 10:48:19;;;;;;;14.40;12.93;;;;;;;;;;5051428;28;20096;-79
2022/12/09 10:50:46;;;;;;;;;;;;;;;;;;5051777;28;20155;-79
2022/12/09 10:53:14;;;;;;;12.85;11.55;;;;;;;;;;5051505;28;20065;-78
2022/12/09 10:55:43;;;;;;;12.18;10.98;;;;;;;;;;5049884;28;20554;-78
2022/12/09 10:58:13;;;;;;;13.50;12.10;;;;;;;;;;5051148;28;20045;-78
2022/12/09 11:00:40;;;;;;;13.13;11.85;;;;;;;;;;5051455;28;20081;-78
2022/12/09 11:03:23;;;;;;;12.77;11.43;;;;;;;;;;5051370;28;20052;-78
2022/12/09 11:05:58;;;;;;;13.05;11.75;;;;;;;;;;5054398;28;20114;-79
2022/12/09 11:08:24;;;;;;;12.55;11.35;;;;;;;;;;5053622;28;20504;-79
2022/12/09 11:10:51;;;;;;;12.40;11.20;;;;;;;;;;5054901;28;20120;-79
2022/12/09 11:13:18;;;;;;;12.15;11.00;;;;;;;;;;5053765;28;20098;-79
2022/12/09 11:15:49;;;;;;;12.68;11.40;;;;;;;;;;5055010;28;20459;-78
2022/12/09 11:18:18;;;;;;;11.57;10.57;;;;;;;;;;5054755;28;20110;-79
2022/12/09 11:20:59;;;;;;;11.52;10.48;;;;;;;;;;5054548;28;20045;-81
2022/12/09 11:23:26;;;;;;;11.43;10.52;;;;;;;;;;5054237;28;20408;-79
2022/12/09 11:26:19;;;;;;;11.32;10.18;;;;;;;;;;5054544;28;20049;-79
2022/12/09 11:28:57;;;;;;;11.00;10.10;;;;;;;;;;5054749;28;20049;-79
2022/12/09 11:31:24;;;;;;;11.27;10.13;;;;;;;;;;5055097;28;20049;-80
2022/12/09 11:33:59;;;;;;;11.50;10.50;;;;;;;;;;5054316;28;20129;-79
2022/12/09 11:36:32;;;;;;;11.50;10.43;;;;;;;;;;5054594;28;20045;-79
2022/12/09 11:39:17;;;;;;;10.77;9.88;;;;;;;;;;5054529;28;20099;-80
2022/12/09 11:44:41;;;;;;;11.90;10.75;;;;;;;;;;5054194;28;20102;-79
2022/12/09 11:47:19;;;;;;;21.10;18.15;;;;;;;;;;5054126;28;20516;-79
2022/12/09 11:49:55;;;;;;;12.18;11.07;;;;;;;;;;5054325;28;20119;-79
2022/12/09 11:52:28;;;;;;;18.38;16.67;;;;;;;;;;5054223;28;20053;-79
2022/12/09 11:55:03;;;;;;;17.63;15.85;;;;;;;;;;5054283;28;20049;-79
2022/12/09 11:57:32;;;;;;;17.52;15.73;;;;;;;;;;5054017;28;20549;-79
2022/12/09 12:00:04;;;;;;;14.40;13.00;;;;;;;;;;5053965;28;20135;-79
2022/12/09 12:02:41;;;;;;;11.63;10.52;;;;;;;;;;5054416;28;20490;-79
2022/12/09 12:05:16;;;;;;;11.25;10.25;;;;;;;;;;5053685;28;20421;-79
2022/12/09 12:08:02;;;;;;;15.65;12.73;;;;;;;;;;5054129;28;20072;-78
2022/12/09 12:10:33;;;;;;;13.93;12.50;;;;;;;;;;5053937;28;20476;-79
2022/12/09 12:13:00;;;;;;;17.65;15.85;;;;;;;;;;5054078;28;20084;-79
2022/12/09 12:15:45;;;;;;;11.32;10.23;;;;;;;;;;5053674;28;20115;-79
2022/12/09 12:18:16;;;;;;;11.85;9.98;;;;;;;;;;5052581;28;20080;-78
2022/12/09 12:20:57;;;;;;;11.13;10.02;;;;;;;;;;5053599;28;20103;-78
2022/12/09 12:23:36;;;;;;;11.07;9.30;;;;;;;;;;5053306;28;20541;-79
2022/12/09 12:26:14;;;;;;;14.10;12.70;;;;;;;;;;5053642;28;20041;-78
2022/12/09 12:29:00;;;;;;;14.35;12.90;;;;;;;;;;5053462;28;20049;-78
2022/12/09 12:31:50;;;;;;;12.73;11.52;;;;;;;;;;5053424;28;20110;-78
2022/12/09 12:34:23;;;;;;;14.40;13.18;;;;;;;;;;5053380;28;20049;-78
2022/12/09 12:36:51;;;;;;;12.10;10.90;;;;;;;;;;5052006;28;20099;-79
2022/12/09 12:39:17;;;;;;;11.38;10.27;;;;;;;;;;5053448;28;20123;-78
2022/12/09 12:42:02;;;;;;;12.73;11.43;;;;;;;;;;5053491;28;20545;-78
2022/12/09 12:47:39;;;;;;;11.52;10.38;;;;;;;;;;5039729;28;20107;-78
2022/12/09 12:50:24;;;;;;;12.68;11.48;;;;;;;;;;5040755;28;20063;-78
2022/12/09 12:52:57;;;;;;;12.60;11.35;;;;;;;;;;5052907;28;20088;-78
2022/12/09 12:55:29;;;;;;;10.77;9.77;;;;;;;;;;5052755;28;20128;-78
2022/12/09 12:58:11;;;;;;;11.55;10.55;;;;;;;;;;5053012;28;20056;-79
2022/12/09 13:00:40;;;;;;;10.32;9.32;;;;;;;;;;5052871;28;20053;-79
2022/12/09 13:03:07;;;;;;;11.25;10.13;;;;;;;;;;5052684;28;20560;-79
2022/12/09 13:05:36;;;;;;;10.45;9.45;;;;;;;;;;5052858;28;20053;-79
2022/12/09 13:08:06;;;;;;;10.27;9.18;;;;;;;;;;5052979;28;20082;-79
2022/12/09 13:10:34;;;;;;;9.93;8.98;;;;;;;;;;5051201;28;20507;-79
2022/12/09 13:13:03;;;;;;;10.15;9.18;;;;;;;;;;5052841;28;20095;-79
2022/12/09 13:15:37;;;;;;;9.98;9.10;;;;;;;;;;5052618;28;20084;-79
2022/12/09 13:18:10;;;;;;;10.57;9.57;;;;;;;;;;5052479;28;20191;-79
2022/12/09 13:20:42;;;;;;;10.15;9.23;;;;;;;;;;5052700;28;20127;-79
2022/12/09 13:23:29;;;;;;;10.70;9.73;;;;;;;;;;5052162;28;20551;-79
2022/12/09 13:26:01;;;;;;;10.13;9.10;;;;;;;;;;5052229;28;20463;-79
2022/12/09 13:28:40;;;;;;;9.60;8.70;;;;;;;;;;5051536;28;20064;-79
2022/12/09 13:31:09;;;;;;;10.55;8.85;;;;;;;;;;5052369;28;20087;-79
2022/12/09 13:33:41;;;;;;;10.07;8.50;;;;;;;;;;5050979;28;20085;-79
2022/12/09 13:36:15;;;;;;;9.70;8.70;;;;;;;;;;5052338;28;20568;-79
2022/12/09 13:38:42;;;;;;;10.07;9.10;;;;;;;;;;5052028;28;20500;-79
2022/12/09 13:41:27;;;;;;;10.73;9.63;;;;;;;;;;5052020;28;20501;-79
2022/12/09 13:44:05;;;;;;;9.90;8.90;;;;;;;;;;5052090;28;20288;-80
2022/12/09 13:46:32;;;;;;;10.00;9.02;;;;;;;;;;5050701;28;20132;-80
2022/12/09 13:48:58;;;;;;;;;;;;;;;;;;5051445;28;20401;-80
2022/12/09 13:51:26;;;;;;;8.97;7.60;;;;;;;;;;5051659;28;20364;-80
2022/12/09 13:53:52;;;;;;;9.27;8.15;;;;;;;;;;5052007;28;20048;-80
2022/12/09 13:56:25;;;;;;;9.40;7.38;;;;;;;;;;5052111;28;20076;-79
2022/12/09 13:59:00;;;;;;;9.02;8.13;;;;;;;;;;5051791;28;20099;-79
2022/12/09 14:01:35;;;;;;;8.45;7.65;;;;;;;;;;5051703;28;20094;-80
2022/12/09 14:04:20;;;;;;;7.45;6.60;;;;;;;;;;5050404;28;20120;-79
2022/12/09 14:06:50;;;;;;;7.65;6.53;;;;;;;;;;5051556;28;20127;-80
2022/12/09 14:09:26;;;;;;;7.32;6.00;;;;;;;;;;5051546;28;20041;-80
2022/12/09 14:11:53;;;;;;;6.47;5.88;;;;;;;;;;5051852;28;20056;-80
2022/12/09 14:14:19;;;;;;;;;;;;;;;;;;5051877;28;20041;-80
2022/12/09 14:16:46;;;;;;;8.95;6.15;;;;;;;;;;5051773;28;19971;-80
2022/12/09 14:19:24;;;;;;;7.50;6.28;;;;;;;;;;5051453;28;20049;-80
2022/12/09 14:22:16;;;;;;;8.82;6.45;;;;;;;;;;5052808;28;20049;-79
2022/12/09 14:24:43;;;;;;;7.57;6.85;;;;;;;;;;5051361;28;20069;-80
2022/12/09 14:27:13;;;;;;;9.55;7.05;;;;;;;;;;5051802;28;20118;-79
2022/12/09 14:29:49;;;;;;;8.82;7.82;;;;;;;;;;5051398;28;20089;-80
2022/12/09 14:32:18;;;;;;;7.97;6.75;;;;;;;;;;5051417;28;20049;-80
2022/12/09 14:34:47;;;;;;;9.27;6.35;;;;;;;;;;5049959;28;20135;-80
2022/12/09 14:37:34;;;;;;;9.55;6.65;;;;;;;;;;5051264;28;20049;-80
2022/12/09 14:40:01;;;;;;;;;;;;;;;;;;5055690;28;20080;-80
2022/12/09 14:42:54;;;;;;;7.93;6.07;;;;;;;;;;5055710;28;19920;-79
2022/12/09 14:45:27;;;;;;;8.63;6.95;;;;;;;;;;5054279;28;20048;-80